avis per tempestes more information blitzortung!


avis per Pluja more information rain snow radar


Visita la nostra xarxa de llocs de meteo:

Template documentation
and downloads

And another site



Thunderstorms From: 18-09-2018 20:00 Until: 19-09-2018 10:59 warning for: Thunderstorms Level: Yellow info button
Rain From: 18-09-2018 20:00 Until: 19-09-2018 10:59 warning for: Rain Level: Yellow info button

Pagina Historial Weather Underground text

Diari Resum Setembre 27, 2017 Unitats:  Mètric    Imperial   Tant
« Previous Dia
SegĂźent Dia »
Diari Setmana Mensual Anual Personalitzada
  Maxima: Minima: Media:
Temperatura: -17.8 °C -9.4 °C -6.1 °C
Punt de rosada: -17.8 °C -11.2 °C -10.2 °C
Humitat: Humidity % 50 % 64 %
Wind Speed: 0 km/h 0 km/h 9.3 km/h
RĂ fegues de vent: 0 km/h - -
Vent:- - SSW
Pression baro: 0 hPa 34533.8 hPa -
Precipitacions: 0 mm    
Historical Graphs
 
 
Dades de taula per Setembre 27, 2017
Temps Temperatura Punt de rosada Pression baro Vent Wind Speed RĂ fegues de vent Humitat Rainfall Rate (Hourly)
-17.8 °C -17.8 °C 0 hPa Calm     Humidity % 0 mm
00:02 -7.1 °C -10.2 °C 34635.4 hPa WSW 6 km/h 6 km/h 70 % 0 mm
00:05 -8.7 °C -10.9 °C 34601.5 hPa Calm   5.1 km/h 78 % 0 mm
00:07 -7.1 °C -10.2 °C 34635.4 hPa WSW 3.1 km/h   70 % 0 mm
00:12 -7.1 °C -10.2 °C 34635.4 hPa SW 3.7 km/h 3.7 km/h 70 % 0 mm
00:15 -8.8 °C -10.8 °C 34635.4 hPa Calm     79 % 0 mm
00:25 -8.8 °C -10.9 °C 34635.4 hPa Calm     79 % 0 mm
00:35 -8.9 °C -10.9 °C 34635.4 hPa South 2.6 km/h 5.1 km/h 79 % 0 mm
00:45 -9.1 °C -11.1 °C 34635.4 hPa SW 5.1 km/h 5.1 km/h 79 % 0 mm
00:55 -9.1 °C -11 °C 34635.4 hPa Calm     80 % 0 mm
01:05 -9.2 °C -10.9 °C 34635.4 hPa Calm     81 % 0 mm
01:15 -9.2 °C -11 °C 34635.4 hPa Calm   2.6 km/h 81 % 0 mm
01:25 -9.2 °C -10.9 °C 34635.4 hPa Calm     82 % 0 mm
01:35 -9.3 °C -11 °C 34635.4 hPa Calm     82 % 0 mm
01:45 -9.3 °C -11 °C 34635.4 hPa WSW 2.6 km/h 5.1 km/h 82 % 0 mm
01:55 -9.4 °C -11.2 °C 34601.5 hPa Calm   2.6 km/h 82 % 0 mm
02:05 -9.4 °C -11.1 °C 34601.5 hPa SW 2.6 km/h 5.1 km/h 83 % 0 mm
02:15 -9.4 °C -11 °C 34601.5 hPa Calm     83 % 0 mm
02:25 -9.4 °C -11.1 °C 34635.4 hPa Calm     83 % 0 mm
02:35 -9.4 °C -11.1 °C 34635.4 hPa Calm     83 % 0 mm
02:45 -9.4 °C -11.1 °C 34635.4 hPa Calm     83 % 0 mm
02:55 -9.4 °C -10.9 °C 34635.4 hPa Calm   2.6 km/h 84 % 0 mm
03:05 -9.4 °C -10.9 °C 34635.4 hPa Calm     84 % 0 mm
03:15 -9.4 °C -10.9 °C 34635.4 hPa NE 2.6 km/h 2.6 km/h 84 % 0 mm
03:25 -9.2 °C -10.7 °C 34635.4 hPa Calm     84 % 0 mm
03:35 -9.2 °C -10.7 °C 34635.4 hPa NE 2.6 km/h 5.1 km/h 84 % 0 mm
03:45 -9.1 °C -10.6 °C 34669.3 hPa Calm   2.6 km/h 84 % 0 mm
03:55 -9.2 °C -10.8 °C 34669.3 hPa Calm     83 % 0 mm
04:05 -9.3 °C -10.9 °C 34669.3 hPa NE 2.6 km/h 5.1 km/h 83 % 0 mm
04:15 -9.3 °C -10.9 °C 34669.3 hPa Calm   2.6 km/h 83 % 0 mm
04:25 -9.2 °C -10.8 °C 34669.3 hPa WSW 2.6 km/h 5.1 km/h 83 % 0 mm
04:35 -9 °C -10.5 °C 34669.3 hPa Calm   2.6 km/h 84 % 0 mm
04:45 -8.9 °C -10.5 °C 34669.3 hPa ENE 5.1 km/h 7.7 km/h 83 % 0 mm
04:55 -8.2 °C -9.9 °C 34669.3 hPa ENE 5.1 km/h 5.1 km/h 82 % 0 mm
05:05 -7.8 °C -9.7 °C 34669.3 hPa Calm   5.1 km/h 80 % 0 mm
05:15 -7.6 °C -9.8 °C 34669.3 hPa ENE 2.6 km/h 5.1 km/h 78 % 0 mm
05:25 -7.1 °C -9.4 °C 34669.3 hPa Calm   5.1 km/h 77 % 0 mm
05:35 -6.9 °C -9.3 °C 34669.3 hPa South 2.6 km/h 5.1 km/h 76 % 0 mm
05:45 -6.5 °C -9.3 °C 34669.3 hPa SSW 2.6 km/h 5.1 km/h 73 % 0 mm
05:55 -6.2 °C -9.1 °C 34635.4 hPa South 2.6 km/h 7.7 km/h 72 % 0 mm
06:05 -5.9 °C -8.9 °C 34635.4 hPa SSW 5.1 km/h 7.7 km/h 71 % 0 mm
06:15 -5.8 °C -8.9 °C 34669.3 hPa SW 5.1 km/h 10.3 km/h 70 % 0 mm
11:15 -5.7 °C -9 °C 34669.3 hPa West 9.3 km/h 9.3 km/h 69 % 0 mm
11:20 -5.6 °C -8.9 °C 34669.3 hPa South 9 km/h 9 km/h 69 % 0 mm
11:25 -5.4 °C -9 °C 34669.3 hPa South 9.8 km/h 9.8 km/h 67 % 0 mm
11:30 -5.4 °C -9.1 °C 34669.3 hPa WSW 11.9 km/h 11.9 km/h 66 % 0 mm
11:35 -5 °C -9 °C 34669.3 hPa SSW 6.3 km/h 6.3 km/h 64 % 0 mm
11:40 -5 °C -8.8 °C 34669.3 hPa ENE 6 km/h 6 km/h 65 % 0 mm
11:45 -4.8 °C -8.8 °C 34669.3 hPa WSW 7.6 km/h 7.6 km/h 64 % 0 mm
11:50 -4.8 °C -8.9 °C 34669.3 hPa South 11.9 km/h 11.9 km/h 63 % 0 mm
11:55 -4.8 °C -9 °C 34669.3 hPa WSW 15 km/h 15 km/h 63 % 0 mm
12:00 -4.9 °C -9.2 °C 34669.3 hPa West 9 km/h 9 km/h 62 % 0 mm
12:05 -4.5 °C -9.1 °C 34669.3 hPa SSW 9 km/h 9 km/h 60 % 0 mm
12:10 -4.1 °C -9.1 °C 34669.3 hPa SSE 11.9 km/h 11.9 km/h 57 % 0 mm
12:11 -4.1 °C -9.1 °C 34669.3 hPa South 11.9 km/h 11.9 km/h 57 % 0 mm
12:16 -4.3 °C -9.5 °C 34669.3 hPa SSE 25.9 km/h 25.9 km/h 56 % 0 mm
12:21 -4.3 °C -9.2 °C 34669.3 hPa West 6 km/h 6 km/h 58 % 0 mm
12:26 -4.3 °C -9.2 °C 34669.3 hPa South 9 km/h 9 km/h 58 % 0 mm
12:31 -4.2 °C -9.4 °C 34669.3 hPa South 17.9 km/h 17.9 km/h 56 % 0 mm
12:36 -4.3 °C -9.5 °C 34635.4 hPa West 17.9 km/h 17.9 km/h 56 % 0 mm
12:41 -4.4 °C -9.6 °C 34635.4 hPa SW 11.9 km/h 11.9 km/h 56 % 0 mm
12:46 -4.4 °C -9.6 °C 34635.4 hPa SW 9 km/h 9 km/h 56 % 0 mm
12:51 -4.2 °C -9.3 °C 34635.4 hPa WNW 9 km/h 9 km/h 56 % 0 mm
12:56 -3.9 °C -9.5 °C 34635.4 hPa SW 6 km/h 6 km/h 54 % 0 mm
13:01 -3.7 °C -9.4 °C 34635.4 hPa SSE 9.3 km/h 9.3 km/h 53 % 0 mm
13:06 -3.7 °C -9.4 °C 34635.4 hPa ESE 15 km/h 15 km/h 53 % 0 mm
13:11 -3.6 °C -9.6 °C 34635.4 hPa SE 11.9 km/h 11.9 km/h 51 % 0 mm
13:16 -3.4 °C -9.5 °C 34635.4 hPa SE 9 km/h 9 km/h 51 % 0 mm
13:21 -3.2 °C -9.5 °C 34601.5 hPa SW 16.1 km/h 16.1 km/h 50 % 0 mm
13:26 -3.6 °C -9.7 °C 34601.5 hPa SSW 12.2 km/h 12.2 km/h 51 % 0 mm
13:27 -3.6 °C -9.8 °C 34601.5 hPa SE 8.5 km/h 8.5 km/h 50 % 0 mm
13:32 -3.7 °C -9.8 °C 34635.4 hPa South 11.9 km/h 11.9 km/h 51 % 0 mm
13:37 -3.9 °C -9.9 °C 34635.4 hPa WNW 11.9 km/h 11.9 km/h 51 % 0 mm
13:42 -4.1 °C -9.9 °C 34635.4 hPa SSW 9 km/h 9 km/h 52 % 0 mm
13:47 -4.2 °C -10 °C 34601.5 hPa South 6 km/h 6 km/h 52 % 0 mm
13:52 -4.2 °C -10 °C 34601.5 hPa SSW 6.3 km/h 6.3 km/h 52 % 0 mm
13:57 -4.2 °C -9.9 °C 34601.5 hPa SSE 6 km/h 6 km/h 53 % 0 mm
14:02 -4.3 °C -10 °C 34635.4 hPa WSW 11.9 km/h 11.9 km/h 53 % 0 mm
14:07 -4.4 °C -10.2 °C 34635.4 hPa South 6.3 km/h 6.3 km/h 52 % 0 mm
14:12 -4.4 °C -10.1 °C 34635.4 hPa West 6 km/h 6 km/h 53 % 0 mm
14:17 -4.4 °C -10.1 °C 34601.5 hPa ESE 5.1 km/h 5.6 km/h 53 % 0 mm
14:22 -4.7 °C -9.9 °C 34601.5 hPa ESE 15.6 km/h 15.6 km/h 55 % 0 mm
14:27 -4.9 °C -10.1 °C 34601.5 hPa ENE 17.9 km/h 17.9 km/h 56 % 0 mm
14:32 -5.1 °C -10.2 °C 34635.4 hPa ESE 23.8 km/h 23.8 km/h 56 % 0 mm
14:37 -5.1 °C -10.1 °C 34635.4 hPa East 19.2 km/h 19.2 km/h 57 % 0 mm
14:42 -5.2 °C -10.1 °C 34635.4 hPa East 17.9 km/h 17.9 km/h 58 % 0 mm
14:47 -5.2 °C -10.1 °C 34601.5 hPa East 15 km/h 15 km/h 58 % 0 mm
14:52 -5.3 °C -10.1 °C 34601.5 hPa East 17.9 km/h 17.9 km/h 58 % 0 mm
14:57 -5.3 °C -10.2 °C 34601.5 hPa ESE 17.9 km/h 17.9 km/h 58 % 0 mm
15:02 -5.2 °C -9.9 °C 34601.5 hPa ESE 15 km/h 15 km/h 59 % 0 mm
15:07 -5.1 °C -9.8 °C 34601.5 hPa East 11.9 km/h 11.9 km/h 59 % 0 mm
15:12 -5.1 °C -9.8 °C 34601.5 hPa ESE 20.9 km/h 20.9 km/h 59 % 0 mm
15:17 -5.2 °C -9.8 °C 34601.5 hPa ESE 17.9 km/h 17.9 km/h 59 % 0 mm
15:22 -5.1 °C -9.9 °C 34601.5 hPa ESE 15 km/h 15 km/h 58 % 0 mm
15:27 -4.7 °C -9.7 °C 34601.5 hPa SW 20.9 km/h 20.9 km/h 57 % 0 mm
15:32 -3.9 °C -9.3 °C 34601.5 hPa SSE 9 km/h 9 km/h 55 % 0 mm
15:37 -4.2 °C -9.9 °C 34601.5 hPa SSE 9 km/h 9 km/h 53 % 0 mm
15:42 -4 °C -9.6 °C 34601.5 hPa SW 17.9 km/h 17.9 km/h 54 % 0 mm
15:47 -3.7 °C -9.4 °C 34567.7 hPa SW 9 km/h 9 km/h 53 % 0 mm
15:52 -3.8 °C -9.7 °C 34567.7 hPa South 11.9 km/h 11.9 km/h 52 % 0 mm
15:57 -3.9 °C -9.6 °C 34567.7 hPa SW 15 km/h 15 km/h 53 % 0 mm
16:02 -3.7 °C -9.6 °C 34601.5 hPa South 15 km/h 15 km/h 52 % 0 mm
16:07 -3.8 °C -9.8 °C 34601.5 hPa South 23.8 km/h 23.8 km/h 51 % 0 mm
16:12 -3.8 °C -9.8 °C 34601.5 hPa West 20.9 km/h 20.9 km/h 51 % 0 mm
16:17 -4.1 °C -9.9 °C 34601.5 hPa WSW 15 km/h 15 km/h 52 % 0 mm
16:22 -3.9 °C -9.9 °C 34601.5 hPa South 17.9 km/h 17.9 km/h 51 % 0 mm
16:27 -3.8 °C -9.8 °C 34601.5 hPa SW 20.9 km/h 20.9 km/h 51 % 0 mm
16:32 -3.7 °C -9.9 °C 34567.7 hPa SW 17.9 km/h 17.9 km/h 50 % 0 mm
16:37 -3.7 °C -9.9 °C 34567.7 hPa SSW 9 km/h 9 km/h 50 % 0 mm
16:42 -3.7 °C -9.9 °C 34567.7 hPa SSW 32.8 km/h 32.8 km/h 50 % 0 mm
16:47 -3.9 °C -10.1 °C 34567.7 hPa SW 20.9 km/h 20.9 km/h 50 % 0 mm
16:52 -3.7 °C -9.9 °C 34567.7 hPa SW 15 km/h 15 km/h 50 % 0 mm
16:57 -3.9 °C -10.1 °C 34567.7 hPa SW 26.9 km/h 26.9 km/h 50 % 0 mm
17:02 -3.8 °C -9.9 °C 34567.7 hPa SSW 17.9 km/h 17.9 km/h 50 % 0 mm
17:07 -3.7 °C -9.9 °C 34567.7 hPa SW 15 km/h 15 km/h 50 % 0 mm
17:12 -3.9 °C -10.1 °C 34567.7 hPa WSW 23.8 km/h 23.8 km/h 50 % 0 mm
17:17 -3.9 °C -10.1 °C 34567.7 hPa SW 20.9 km/h 20.9 km/h 50 % 0 mm
17:22 -3.9 °C -10.1 °C 34567.7 hPa SSW 23.8 km/h 23.8 km/h 50 % 0 mm
17:27 -3.9 °C -9.9 °C 34567.7 hPa WSW 15 km/h 15 km/h 51 % 0 mm
17:32 -3.9 °C -10.1 °C 34567.7 hPa West 15 km/h 15 km/h 50 % 0 mm
17:33 -3.9 °C -9.9 °C 34567.7 hPa SSW 16.1 km/h 16.1 km/h 51 % 0 mm
17:38 -4.1 °C -10.1 °C 34567.7 hPa SSW 20.9 km/h 20.9 km/h 51 % 0 mm
17:43 -4.2 °C -10.2 °C 34567.7 hPa WSW 20.9 km/h 20.9 km/h 51 % 0 mm
17:48 -4.2 °C -10.2 °C 34533.8 hPa SW 15 km/h 15 km/h 51 % 0 mm
17:53 -4.3 °C -10.3 °C 34533.8 hPa WSW 20.9 km/h 20.9 km/h 51 % 0 mm
17:58 -4.3 °C -10.2 °C 34533.8 hPa SSW 26.9 km/h 26.9 km/h 52 % 0 mm
18:03 -4.4 °C -10.2 °C 34533.8 hPa WSW 9 km/h 9 km/h 52 % 0 mm
18:08 -4.4 °C -10.2 °C 34533.8 hPa West 18.3 km/h 18.3 km/h 52 % 0 mm
18:13 -4.4 °C -10.2 °C 34533.8 hPa SW 20.9 km/h 20.9 km/h 52 % 0 mm
18:18 -4.6 °C -10.4 °C 34533.8 hPa South 15 km/h 15 km/h 52 % 0 mm
18:23 -4.8 °C -10.6 °C 34533.8 hPa SW 23.8 km/h 23.8 km/h 52 % 0 mm
18:28 -4.8 °C -10.6 °C 34533.8 hPa SW 15 km/h 15 km/h 52 % 0 mm
18:33 -4.8 °C -10.6 °C 34533.8 hPa SW 26.9 km/h 26.9 km/h 52 % 0 mm
18:38 -4.9 °C -10.6 °C 34533.8 hPa WSW 12.7 km/h 12.7 km/h 53 % 0 mm
18:43 -5 °C -10.6 °C 34533.8 hPa SSW 17.9 km/h 17.9 km/h 53 % 0 mm
18:48 -5.1 °C -10.6 °C 34533.8 hPa SW 15 km/h 15 km/h 54 % 0 mm
18:53 -5.1 °C -10.6 °C 34533.8 hPa SW 15 km/h 15 km/h 54 % 0 mm
18:58 -5.3 °C -10.7 °C 34533.8 hPa WSW 22 km/h 22 km/h 54 % 0 mm
19:03 -5.4 °C -10.7 °C 34567.7 hPa SSW 20.9 km/h 20.9 km/h 55 % 0 mm
19:08 -5.6 °C -10.8 °C 34567.7 hPa South 15.3 km/h 15.3 km/h 55 % 0 mm
19:13 -5.6 °C -10.6 °C 34567.7 hPa SW 23.3 km/h 23.3 km/h 57 % 0 mm
19:18 -5.8 °C -10.7 °C 34567.7 hPa WSW 15 km/h 15 km/h 57 % 0 mm
19:23 -5.8 °C -10.6 °C 34567.7 hPa SSE 9 km/h 9 km/h 58 % 0 mm
19:28 -5.9 °C -10.7 °C 34567.7 hPa SSW 15 km/h 15 km/h 58 % 0 mm
19:33 -6.1 °C -10.7 °C 34601.5 hPa SW 23.8 km/h 23.8 km/h 59 % 0 mm
19:38 -6.1 °C -10.6 °C 34601.5 hPa SSW 20.9 km/h 20.9 km/h 60 % 0 mm
19:43 -6.2 °C -10.5 °C 34601.5 hPa SW 15 km/h 15 km/h 61 % 0 mm
19:48 -6.3 °C -10.6 °C 34567.7 hPa WSW 15 km/h 15 km/h 61 % 0 mm
19:53 -6.3 °C -10.5 °C 34567.7 hPa SW 15 km/h 15 km/h 62 % 0 mm
19:58 -6.4 °C -10.6 °C 34567.7 hPa WSW 11.9 km/h 11.9 km/h 62 % 0 mm
20:03 -6.4 °C -10.6 °C 34601.5 hPa SSW 11.9 km/h 11.9 km/h 62 % 0 mm
20:08 -6.4 °C -10.5 °C 34601.5 hPa SSW 9 km/h 9 km/h 63 % 0 mm
20:13 -6.6 °C -10.6 °C 34601.5 hPa SW 15 km/h 15 km/h 63 % 0 mm
20:18 -6.6 °C -10.5 °C 34601.5 hPa SW 11.9 km/h 11.9 km/h 64 % 0 mm
20:23 -6.7 °C -10.6 °C 34601.5 hPa SW 11.1 km/h 11.1 km/h 64 % 0 mm
20:28 -6.7 °C -10.4 °C 34601.5 hPa WSW 11.9 km/h 11.9 km/h 65 % 0 mm
20:33 -6.7 °C -10.4 °C 34601.5 hPa SW 9 km/h 9 km/h 66 % 0 mm
20:38 -6.8 °C -10.4 °C 34601.5 hPa SW 9 km/h 9 km/h 66 % 0 mm
20:43 -6.8 °C -10.3 °C 34601.5 hPa SW 9 km/h 9 km/h 67 % 0 mm
20:48 -6.9 °C -10.4 °C 34635.4 hPa SW 8 km/h 8 km/h 67 % 0 mm
20:53 -6.9 °C -10.4 °C 34635.4 hPa WSW 6.3 km/h 6.3 km/h 67 % 0 mm
20:58 -6.9 °C -10.3 °C 34635.4 hPa WSW 6 km/h 6 km/h 68 % 0 mm
21:03 -6.9 °C -10.3 °C 34635.4 hPa SW 6 km/h 6 km/h 68 % 0 mm
21:08 -7 °C -10.2 °C 34635.4 hPa SW 6 km/h 6 km/h 69 % 0 mm
21:13 -7.1 °C -10.3 °C 34635.4 hPa WSW 6 km/h 6 km/h 69 % 0 mm
21:18 -7.1 °C -10.3 °C 34635.4 hPa WSW 6 km/h 6 km/h 69 % 0 mm
21:23 -7.1 °C -10.2 °C 34635.4 hPa SW 6 km/h 6 km/h 70 % 0 mm
21:28 -7.1 °C -10.2 °C 34635.4 hPa SW 6 km/h 6 km/h 70 % 0 mm
21:33 -7.1 °C -10.2 °C 34635.4 hPa WSW 3.7 km/h 3.7 km/h 70 % 0 mm
21:38 -7.2 °C -10.2 °C 34635.4 hPa Calm     71 % 0 mm
21:43 -7.2 °C -10.2 °C 34635.4 hPa Calm     71 % 0 mm
21:48 -7.2 °C -10.2 °C 34669.3 hPa Calm     71 % 0 mm
21:53 -7.3 °C -10.2 °C 34669.3 hPa Calm     72 % 0 mm
21:58 -7.3 °C -10.2 °C 34669.3 hPa Calm     72 % 0 mm
22:03 -7.3 °C -10.1 °C 34669.3 hPa Calm     73 % 0 mm
22:08 -7.3 °C -10.1 °C 34669.3 hPa Calm     73 % 0 mm
22:13 -7.3 °C -10.1 °C 34669.3 hPa Calm     73 % 0 mm
22:18 -7.4 °C -10.1 °C 34669.3 hPa Calm     73 % 0 mm
22:23 -7.4 °C -10.1 °C 34669.3 hPa Calm     74 % 0 mm
22:28 -7.4 °C -10.1 °C 34669.3 hPa Calm     74 % 0 mm
22:33 -7.4 °C -10.1 °C 34669.3 hPa Calm     74 % 0 mm
22:38 -7.5 °C -10.1 °C 34669.3 hPa Calm     74 % 0 mm
22:43 -7.6 °C -10.2 °C 34669.3 hPa Calm     74 % 0 mm
22:48 -7.6 °C -10.1 °C 34669.3 hPa Calm     75 % 0 mm
22:53 -7.6 °C -10.1 °C 34669.3 hPa Calm     75 % 0 mm
22:58 -7.6 °C -10.1 °C 34669.3 hPa Calm     75 % 0 mm
23:03 -7.7 °C -10.1 °C 34669.3 hPa Calm     76 % 0 mm
23:08 -7.7 °C -10.1 °C 34669.3 hPa Calm     76 % 0 mm
23:13 -7.7 °C -10.1 °C 34669.3 hPa Calm     76 % 0 mm
23:18 -7.7 °C -10.2 °C 34669.3 hPa West 3.1 km/h 3.1 km/h 75 % 0 mm
23:23 -7.7 °C -10.1 °C 34669.3 hPa Calm     76 % 0 mm
23:28 -7.7 °C -10.1 °C 34669.3 hPa Calm     76 % 0 mm
23:33 -7.7 °C -10.1 °C 34669.3 hPa Calm     76 % 0 mm
23:38 -7.7 °C -10 °C 34669.3 hPa Calm     77 % 0 mm
23:43 -7.8 °C -10.1 °C 34669.3 hPa Calm     77 % 0 mm
23:48 -7.8 °C -10.1 °C 34669.3 hPa Calm     77 % 0 mm
23:53 -7.9 °C -10.2 °C 34669.3 hPa Calm     77 % 0 mm
23:58 -7.9 °C -10.2 °C 34669.3 hPa Calm     77 % 0 mm
Meteo Sesrovires
Elogis d' Weather Underground - 1.5 mb

Guio original per  Jim McMurry - jmcmurry@mwt.net Adaptat per a la plantilla per  Wim van der Kuil - Leuven-Template.eu

Trobareu la nostra informacio del temps tambe a:

Weather Underground

AWEKAS